Norwalk, IA (50211)

8:53 AM CDT on September 19, 2014 (GMT -0500)
Norwalk, IA (2mi SW) | Change Station
CLOSE
Current Station
Personal Weather Station
Location: Norwalk, IA
Elevation: 919 ft
Nearby Weather Stations

Elev 919 ft 41.46 °N, 93.71 °W | Updated 11 minutes ago

Partly Cloudy
Partly Cloudy
58.8 °F
Feels Like 58.8 °F
N
4.2
Wind Variable Wind from SSE

Today
High -- | Low -- °F
--% Chance of Precip.
Yesterday
High -- | Low -- °F
Precip. -- in
6:59 AM 7:17 PM
Waning Crescent, 19% visible
Pressure 30.02 in
Visibility 8.0 miles
Clouds Few 16000 ft
Scattered Clouds 25000 ft
Scattered Clouds 30000 ft
Dew Point 56 °F
Humidity 89%
Rainfall 0.00 in
Snow Depth Not available.
UV 0 out of 12
Pollen 5.60 out of 12
Air Quality Not available.
Flu Activity Not available.
METAR KDSM 191254Z 17008KT 8SM FEW160 SCT250 SCT300 14/12 A3002

More Conditions Fewer Conditions

Pressure 30.02 in
Visibility 8.0 miles
Clouds Few 16000 ft
Scattered Clouds 25000 ft
Scattered Clouds 30000 ft
Dew Point 56 °F
Humidity 89%
Rainfall 0.00 in
Snow Depth Not available.
UV 0 out of 12
Pollen 5.60 out of 12
Air Quality Not available.
Flu Activity Not available.
METAR KDSM 191254Z 17008KT 8SM FEW160 SCT250 SCT300 14/12 A3002

More Conditions Fewer Conditions

10-Day Weather Forecast

Almanac

Astronomy

Sep. 19, 2014 Rise Set
Actual Time 6:59 AM CDT 7:17 PM CDT
Civil Twilight 6:31 AM CDT 7:44 PM CDT
Nautical Twilight 5:58 AM CDT 8:17 PM CDT
Astronomical Twilight 5:25 AM CDT 8:50 PM CDT
Moon 2:42 AM CDT 4:48 PM CDT
Length of Visible Light 13h 13m
Length of Day
12h 17m
Tomorrow will be 2m 44s shorter.
Waning Crescent, 19% of the Moon is Illuminated
Today
Waning Crescent
Sep 24
New
Oct 1
First Quarter
Oct 8
Full
Oct 15
Last Quarter

Today's Extremes

State Highs State Lows

Community

WunderPhotos

Upload Photos

1,754,608 photos uploaded!

WunderBlogs® & News

Nearby

Snow Depth

Station Depth Elevation
No new snow has been reported.

Earthquake Activity

City Distance Mag. Time & Date
No recent earthquake activity has been reported nearby.
Minimum magnitude displayed is 2.5.

Coastal Water Temperatures

Place Temperature
No Stations Reporting

Nearby Weather Stations